Time;durP1;ratioP1;P1;durP2;ratioP2;P2;SDS_P1;SDS_P2;PMS_P1;PMS_P2;Temp;Humidity;BMP_temperature;BMP_pressure;BME280_temperature;BME280_humidity;BME280_pressure;Samples;Min_cycle;Max_cycle;Signal;HPM_P1;HPM_P2
2023/03/04 00:02:13;;;;;;;;;;;;;;;0.72;68.13;98423.03;5101250;28;19924;-55
2023/03/04 00:04:41;;;;;;;;;;;;;;;0.67;68.18;98422.94;5110430;28;19967;-60
2023/03/04 00:07:09;;;;;;;;;;;;;;;0.54;68.55;98429.34;5111160;28;19923;-57
2023/03/04 00:09:37;;;;;;;;;;;;;;;0.49;68.55;98427.38;5114857;28;19924;-68
2023/03/04 00:12:07;;;;;;;;;;;;;;;0.52;68.51;98428.75;5106293;28;19924;-60
2023/03/04 00:14:35;;;;;;;;;;;;;;;0.45;68.69;98431.56;5113038;28;19971;-56
2023/03/04 00:17:04;;;;;;;;;;;;;;;0.40;68.88;98423.41;5099731;28;19977;-61
2023/03/04 00:19:32;;;;;;;;;;;;;;;0.33;68.89;98422.72;5087464;28;19927;-56
2023/03/04 00:21:59;;;;;;;;;;;;;;;0.38;68.84;98430.88;5109385;28;19928;-61
2023/03/04 00:24:27;;;;;;;;;;;;;;;0.44;68.80;98429.13;5104777;28;20017;-60
2023/03/04 00:26:55;;;;;;;;;;;;;;;0.49;68.38;98427.38;5100154;28;19931;-55
2023/03/04 00:29:23;;;;;;;;;;;;;;;0.36;68.73;98422.25;5093188;28;19931;-61
2023/03/04 00:31:50;;;;;;;;;;;;;;;0.23;69.14;98423.31;5091149;28;19936;-55
2023/03/04 00:34:19;;;;;;;;;;;;;;;0.22;69.33;98426.22;5094835;28;19924;-56
2023/03/04 00:36:47;;;;;;;;;;;;;;;0.23;69.76;98423.31;5098860;28;19923;-63
2023/03/04 00:39:17;;;;;;;;;;;;;;;0.22;69.38;98421.69;5107434;28;20015;-55
2023/03/04 00:41:44;;;;;;;;;;;;;;;0.17;69.36;98426.09;5097769;28;19931;-55
2023/03/04 00:44:14;;;;;;;;;;;;;;;0.17;69.31;98424.25;5102704;28;19949;-62
2023/03/04 00:46:42;;;;;;;;;;;;;;;0.19;69.33;98426.66;5083997;28;19935;-55
2023/03/04 00:49:10;;;;;;;;;;;;;;;0.18;69.28;98433.06;5089305;28;20380;-55
2023/03/04 00:51:39;;;;;;;;;;;;;;;0.21;69.47;98429.91;5109571;28;19924;-56
2023/03/04 00:54:07;;;;;;;;;;;;;;;0.22;69.38;98431.56;5091515;28;20014;-55
2023/03/04 00:56:35;;;;;;;;;;;;;;;0.19;69.23;98429.34;5090748;28;19924;-55
2023/03/04 00:59:02;;;;;;;;;;;;;;;0.19;69.11;98426.66;5089369;28;19928;-55
2023/03/04 01:01:32;;;;;;;;;;;;;;;0.08;69.46;98430.97;5076639;28;19927;-55
2023/03/04 01:04:00;;;;;;;;;;;;;;;0.11;69.31;98425.16;5070579;28;19924;-59
2023/03/04 01:06:28;;;;;;;;;;;;;;;0.13;69.20;98427.59;5086491;28;20396;-55
2023/03/04 01:08:57;;;;;;;;;;;;;;;0.05;69.20;98430.59;5096135;28;19924;-56
2023/03/04 01:11:25;;;;;;;;;;;;;;;0.11;69.11;98425.16;5089385;28;19925;-55
2023/03/04 01:13:53;;;;;;;;;;;;;;;0.03;69.25;98427.34;5084959;28;19924;-55
2023/03/04 01:16:20;;;;;;;;;;;;;;;-0.12;69.49;98425.13;5093874;28;19924;-55
2023/03/04 01:18:48;;;;;;;;;;;;;;;-0.13;69.91;98418.16;5092470;28;19924;-54
2023/03/04 01:21:20;;;;;;;;;;;;;;;-0.20;69.74;98418.25;5102064;28;20399;-54
2023/03/04 01:23:50;;;;;;;;;;;;;;;-0.20;70.29;98412.94;5109728;28;19923;-55
2023/03/04 01:26:19;;;;;;;;;;;;;;;-0.13;70.13;98416.28;5081096;28;19924;-55
2023/03/04 01:28:47;;;;;;;;;;;;;;;-0.14;70.28;98416.53;5068318;28;19928;-55
2023/03/04 01:31:15;;;;;;;;;;;;;;;-0.16;70.48;98419.44;5091323;28;19928;-55
2023/03/04 01:33:44;;;;;;;;;;;;;;;-0.19;70.49;98416.41;5096174;28;19924;-55
2023/03/04 01:36:12;;;;;;;;;;;;;;;-0.30;70.60;98412.66;5077348;28;20293;-54
2023/03/04 01:38:39;;;;;;;;;;;;;;;-0.22;70.66;98417.66;5087549;28;19923;-55
2023/03/04 01:41:07;;;;;;;;;;;;;;;-0.27;71.25;98407.69;5100296;28;19927;-55
2023/03/04 01:43:37;;;;;;;;;;;;;;;-0.23;70.37;98405.34;5107152;28;19938;-54
2023/03/04 01:46:05;;;;;;;;;;;;;;;-0.38;70.70;98410.31;5089712;28;19963;-54
2023/03/04 01:48:35;;;;;;;;;;;;;;;-0.45;70.72;98407.75;5068920;28;20176;-55
2023/03/04 01:51:03;;;;;;;;;;;;;;;-0.51;70.77;98410.53;5067331;28;19928;-55
2023/03/04 01:53:32;;;;;;;;;;;;;;;-0.47;70.74;98401.03;5073536;28;19932;-56
2023/03/04 01:56:11;;;;;;;;;;;;;;;-0.40;70.29;98410.56;5058667;28;19924;-55
2023/03/04 01:58:40;;;;;;;;;;;;;;;-0.54;70.39;98401.09;5085890;28;19936;-56
2023/03/04 02:01:09;;;;;;;;;;;;;;;-0.68;71.11;98400.50;5075066;28;20010;-54
2023/03/04 02:03:37;;;;;;;;;;;;;;;-0.73;71.22;98391.53;5073776;28;20421;-54
2023/03/04 02:06:05;;;;;;;;;;;;;;;-0.59;70.85;98399.09;5096251;28;19931;-54
2023/03/04 02:08:33;;;;;;;;;;;;;;;-0.57;70.71;98397.03;5084257;28;20234;-55
2023/03/04 02:11:01;;;;;;;;;;;;;;;-0.55;70.75;98394.94;5081855;28;19936;-55
2023/03/04 02:13:29;;;;;;;;;;;;;;;-0.76;70.98;98390.13;5073617;28;19928;-55
2023/03/04 02:15:58;;;;;;;;;;;;;;;-0.54;71.07;98396.56;5076580;28;19930;-55
2023/03/04 02:18:26;;;;;;;;;;;;;;;-0.66;71.13;98387.72;5073088;28;19928;-56
2023/03/04 02:20:56;;;;;;;;;;;;;;;-0.57;70.76;98390.91;5084806;28;19967;-55
2023/03/04 02:23:25;;;;;;;;;;;;;;;-0.68;70.90;98387.16;5085923;28;19928;-56
2023/03/04 02:26:02;;;;;;;;;;;;;;;-0.62;70.73;98386.25;5073391;28;19932;-55
2023/03/04 02:28:30;;;;;;;;;;;;;;;-0.70;70.88;98383.88;5081187;28;19998;-54
2023/03/04 02:30:58;;;;;;;;;;;;;;;-0.78;70.96;98378.88;5080913;28;19935;-56
2023/03/04 02:33:26;;;;;;;;;;;;;;;-0.80;71.11;98378.28;5084786;28;20227;-55
2023/03/04 02:35:54;;;;;;;;;;;;;;;-0.68;70.56;98381.00;5086045;28;19932;-55
2023/03/04 02:38:22;;;;;;;;;;;;;;;-0.76;70.78;98374.13;5089031;28;19946;-56
2023/03/04 02:40:51;;;;;;;;;;;;;;;-0.70;70.41;98370.53;5081591;28;19982;-55
2023/03/04 02:43:20;;;;;;;;;;;;;;;-0.79;70.50;98366.59;5080730;28;19931;-54
2023/03/04 02:45:49;;;;;;;;;;;;;;;-0.73;70.05;98364.84;5072727;28;19979;-56
2023/03/04 02:48:17;;;;;;;;;;;;;;;-0.87;70.57;98362.38;5082974;28;19928;-55
2023/03/04 02:50:47;;;;;;;;;;;;;;;-0.85;70.65;98356.81;5080719;28;20431;-55
2023/03/04 02:53:15;;;;;;;;;;;;;;;-0.88;70.71;98362.59;5097126;28;19932;-54
2023/03/04 02:55:43;;;;;;;;;;;;;;;-0.95;70.92;98356.56;5082382;28;19931;-54
2023/03/04 02:58:12;;;;;;;;;;;;;;;-0.95;70.68;98353.88;5082189;28;20004;-55
2023/03/04 03:00:42;;;;;;;;;;;;;;;-0.99;70.63;98347.38;5086982;28;19925;-55
2023/03/04 03:03:11;;;;;;;;;;;;;;;-1.03;71.03;98351.53;5085576;28;19924;-54
2023/03/04 03:05:39;;;;;;;;;;;;;;;-1.12;71.13;98348.34;5088307;28;19924;-54
2023/03/04 03:08:07;;;;;;;;;;;;;;;-1.23;71.77;98349.91;5078934;28;19954;-55
2023/03/04 03:10:36;;;;;;;;;;;;;;;-1.14;71.50;98353.09;5088772;28;19930;-55
2023/03/04 03:13:05;;;;;;;;;;;;;;;-1.10;71.33;98359.59;5080953;28;19924;-55
2023/03/04 03:15:34;;;;;;;;;;;;;;;-1.09;71.23;98362.03;5077036;28;20366;-56
2023/03/04 03:18:03;;;;;;;;;;;;;;;-1.23;71.08;98360.56;5098920;28;19924;-56
2023/03/04 03:20:31;;;;;;;;;;;;;;;-1.22;71.71;98361.41;5091280;28;19931;-55
2023/03/04 03:22:59;;;;;;;;;;;;;;;-1.24;71.65;98366.94;5093401;28;20427;-55
2023/03/04 03:25:27;;;;;;;;;;;;;;;-1.28;71.57;98360.44;5082538;28;19925;-59
2023/03/04 03:27:55;;;;;;;;;;;;;;;-1.20;71.49;98364.66;5079647;28;19932;-55
2023/03/04 03:30:23;;;;;;;;;;;;;;;-1.28;71.32;98365.75;5076129;28;20377;-55
2023/03/04 03:32:51;;;;;;;;;;;;;;;-1.37;71.84;98365.28;5082757;28;20404;-55
2023/03/04 03:35:20;;;;;;;;;;;;;;;-1.31;71.89;98363.56;5082903;28;19932;-55
2023/03/04 03:37:48;;;;;;;;;;;;;;;-1.21;71.31;98369.19;5090937;28;19946;-55
2023/03/04 03:40:16;;;;;;;;;;;;;;;-1.30;71.70;98365.19;5103271;28;19935;-54
2023/03/04 03:42:44;;;;;;;;;;;;;;;-1.30;71.94;98370.50;5109922;28;19931;-58
2023/03/04 03:45:11;;;;;;;;;;;;;;;-1.32;71.76;98369.94;5104982;28;19924;-55
2023/03/04 03:47:39;;;;;;;;;;;;;;;-1.59;72.51;98364.91;5082080;28;20407;-55
2023/03/04 03:50:07;;;;;;;;;;;;;;;-1.68;73.20;98374.22;5107139;28;20384;-55
2023/03/04 03:52:36;;;;;;;;;;;;;;;-1.61;73.38;98369.63;5108177;28;19977;-55
2023/03/04 03:55:05;;;;;;;;;;;;;;;-1.54;73.20;98374.09;5109381;28;19928;-54
2023/03/04 03:57:32;;;;;;;;;;;;;;;-1.83;73.68;98379.09;5098638;28;20328;-55
2023/03/04 04:00:00;;;;;;;;;;;;;;;-1.94;74.53;98377.16;5089155;28;19924;-55
2023/03/04 04:02:38;;;;;;;;;;;;;;;-1.82;74.35;98372.72;5100866;28;20003;-57
2023/03/04 04:05:07;;;;;;;;;;;;;;;-1.84;74.78;98380.13;5105340;28;19935;-55
2023/03/04 04:07:35;;;;;;;;;;;;;;;-2.00;75.55;98375.38;5102524;28;19931;-54
2023/03/04 04:10:04;;;;;;;;;;;;;;;-1.82;75.29;98383.38;5098395;28;20395;-55
2023/03/04 04:12:39;;;;;;;;;;;;;;;-1.79;75.08;98382.13;5110159;28;19976;-55
2023/03/04 04:15:07;;;;;;;;;;;;;;;-1.83;75.36;98384.41;5090048;28;19930;-55
2023/03/04 04:17:35;;;;;;;;;;;;;;;-1.73;75.38;98392.72;5087319;28;19932;-55
2023/03/04 04:20:03;;;;;;;;;;;;;;;-1.67;75.45;98388.34;5079045;28;19932;-55
2023/03/04 04:22:31;;;;;;;;;;;;;;;-1.80;75.65;98386.66;5089227;28;19932;-55
2023/03/04 04:24:58;;;;;;;;;;;;;;;-1.69;75.39;98396.56;5087406;28;19960;-55
2023/03/04 04:27:28;;;;;;;;;;;;;;;-1.67;75.52;98394.50;5074540;28;19928;-56
2023/03/04 04:29:56;;;;;;;;;;;;;;;-1.55;75.07;98399.09;5083482;28;19932;-55
2023/03/04 04:32:24;;;;;;;;;;;;;;;-1.70;75.76;98394.94;5068202;28;19932;-55
2023/03/04 04:34:51;;;;;;;;;;;;;;;-1.64;75.98;98391.41;5080885;28;19928;-55
2023/03/04 04:37:19;;;;;;;;;;;;;;;-1.52;75.66;98402.13;5088934;28;20397;-55
2023/03/04 04:39:47;;;;;;;;;;;;;;;-1.45;75.42;98399.38;5089710;28;19927;-55
2023/03/04 04:42:15;;;;;;;;;;;;;;;-1.45;75.80;98396.72;5078980;28;20405;-55
2023/03/04 04:44:44;;;;;;;;;;;;;;;-1.29;75.37;98401.47;5082251;28;20305;-55
2023/03/04 04:47:12;;;;;;;;;;;;;;;-1.34;75.10;98403.97;5078762;28;20285;-55
2023/03/04 04:49:40;;;;;;;;;;;;;;;-1.45;75.76;98402.88;5080995;28;19931;-56
2023/03/04 04:52:07;;;;;;;;;;;;;;;-1.45;76.35;98396.72;5086667;28;19928;-55
2023/03/04 04:54:35;;;;;;;;;;;;;;;-1.33;75.84;98400.31;5084588;28;20013;-54
2023/03/04 04:57:03;;;;;;;;;;;;;;;-1.38;75.99;98394.81;5089996;28;20014;-56
2023/03/04 04:59:31;;;;;;;;;;;;;;;-1.42;76.54;98402.44;5083087;28;19928;-55
2023/03/04 05:02:00;;;;;;;;;;;;;;;-1.30;76.60;98401.69;5074082;28;19924;-55
2023/03/04 05:04:28;;;;;;;;;;;;;;;-1.22;75.59;98404.88;5098390;28;19924;-55
2023/03/04 05:06:56;;;;;;;;;;;;;;;-1.24;75.84;98401.59;5085162;28;19928;-56
2023/03/04 05:09:24;;;;;;;;;;;;;;;-1.33;76.22;98409.09;5082444;28;19924;-57
2023/03/04 05:11:52;;;;;;;;;;;;;;;-1.18;75.90;98403.38;5078685;28;19985;-56
2023/03/04 05:14:20;;;;;;;;;;;;;;;-1.14;75.85;98404.56;5079821;28;19928;-55
2023/03/04 05:16:48;;;;;;;;;;;;;;;-1.30;76.22;98402.50;5089041;28;19928;-55
2023/03/04 05:19:17;;;;;;;;;;;;;;;-1.08;76.09;98406.31;5088985;28;19970;-58
2023/03/04 05:21:45;;;;;;;;;;;;;;;-1.11;76.19;98408.66;5066019;28;19931;-55
2023/03/04 05:24:13;;;;;;;;;;;;;;;-1.03;75.76;98410.19;5088833;28;19935;-55
2023/03/04 05:26:40;;;;;;;;;;;;;;;-1.07;76.05;98417.81;5090282;28;20406;-55
2023/03/04 05:29:08;;;;;;;;;;;;;;;-1.14;76.19;98412.56;5091071;28;20383;-57
2023/03/04 05:31:36;;;;;;;;;;;;;;;-1.22;76.60;98412.88;5088628;28;20519;-55
2023/03/04 05:34:04;;;;;;;;;;;;;;;-1.01;76.46;98413.44;5078589;28;19989;-55
2023/03/04 05:36:33;;;;;;;;;;;;;;;-1.00;76.13;98413.22;5085470;28;20404;-56
2023/03/04 05:39:01;;;;;;;;;;;;;;;-1.03;76.35;98408.31;5066880;28;20304;-56
2023/03/04 05:41:31;;;;;;;;;;;;;;;-0.97;76.20;98411.94;5063496;28;19970;-57
2023/03/04 05:43:59;;;;;;;;;;;;;;;-0.85;75.80;98410.19;5064812;28;19928;-55
2023/03/04 05:46:27;;;;;;;;;;;;;;;-0.90;75.96;98412.69;5063452;28;20415;-55
2023/03/04 05:48:55;;;;;;;;;;;;;;;-1.20;76.47;98409.97;5065077;28;20442;-57
2023/03/04 05:51:22;;;;;;;;;;;;;;;-1.14;77.08;98409.91;5067469;28;19925;-55
2023/03/04 05:53:52;;;;;;;;;;;;;;;-0.99;76.64;98414.03;5068035;28;19990;-55
2023/03/04 05:56:20;;;;;;;;;;;;;;;-0.86;76.28;98414.66;5045785;28;19925;-56
2023/03/04 05:58:47;;;;;;;;;;;;;;;-0.92;76.20;98417.44;5067412;28;19967;-55
2023/03/04 06:01:16;;;;;;;;;;;;;;;-0.94;76.20;98419.50;5051329;28;19925;-55
2023/03/04 06:03:47;;;;;;;;;;;;;;;-0.86;76.46;98420.00;5065264;28;19924;-56
2023/03/04 06:06:15;;;;;;;;;;;;;;;-0.82;76.30;98425.72;5060280;28;20447;-56
2023/03/04 06:08:43;;;;;;;;;;;;;;;-0.86;76.32;98416.53;5054741;28;19925;-55
2023/03/04 06:11:12;;;;;;;;;;;;;;;-0.78;75.98;98421.56;5056263;28;19925;-56
2023/03/04 06:13:40;;;;;;;;;;;;;;;-0.70;75.70;98420.41;5046019;28;19928;-55
2023/03/04 06:16:07;;;;;;;;;;;;;;;-0.78;75.64;98426.91;5059472;28;20309;-57
2023/03/04 06:18:36;;;;;;;;;;;;;;;-0.64;75.36;98425.69;5059566;28;19925;-55
2023/03/04 06:21:04;;;;;;;;;;;;;;;-0.58;75.02;98424.78;5060517;28;20297;-55
2023/03/04 06:23:31;;;;;;;;;;;;;;;-0.65;75.54;98428.56;5059148;28;19939;-57
2023/03/04 06:25:59;;;;;;;;;;;;;;;-0.58;75.29;98429.31;5061556;28;19929;-56
2023/03/04 06:28:29;;;;;;;;;;;;;;;-0.57;75.13;98431.75;5061265;28;19935;-55
2023/03/04 06:30:57;;;;;;;;;;;;;;;-0.42;74.60;98431.31;5044257;28;19968;-55
2023/03/04 06:33:25;;;;;;;;;;;;;;;-0.34;74.29;98432.84;5046376;28;19935;-55
2023/03/04 06:35:53;;;;;;;;;;;;;;;-0.37;74.58;98438.66;5060634;28;19929;-57
2023/03/04 06:38:21;;;;;;;;;;;;;;;-0.36;74.32;98437.63;5084376;28;19939;-55
2023/03/04 06:40:49;;;;;;;;;;;;;;;-0.44;74.65;98441.41;5094108;28;19924;-55
2023/03/04 06:43:17;;;;;;;;;;;;;;;-0.44;74.60;98440.59;5079530;28;19935;-56
2023/03/04 06:45:46;;;;;;;;;;;;;;;-0.57;74.79;98439.75;5077330;28;19924;-55
2023/03/04 06:48:14;;;;;;;;;;;;;;;-0.50;74.99;98441.50;5085351;28;19928;-58
2023/03/04 06:50:42;;;;;;;;;;;;;;;-0.48;74.55;98437.59;5087230;28;19932;-56
2023/03/04 06:53:09;;;;;;;;;;;;;;;-0.44;74.57;98452.06;5088463;28;19990;-55
2023/03/04 06:55:37;;;;;;;;;;;;;;;-0.32;74.19;98454.78;5082931;28;19924;-55
2023/03/04 06:58:05;;;;;;;;;;;;;;;-0.35;74.10;98452.59;5087615;28;19931;-55
2023/03/04 07:00:33;;;;;;;;;;;;;;;-0.29;74.11;98449.00;5082461;28;19928;-56
2023/03/04 07:03:02;;;;;;;;;;;;;;;-0.31;73.94;98454.56;5092740;28;19925;-56
2023/03/04 07:05:30;;;;;;;;;;;;;;;-0.31;73.65;98459.09;5087234;28;20033;-55
2023/03/04 07:07:58;;;;;;;;;;;;;;;-0.23;73.60;98461.44;5073850;28;19927;-56
2023/03/04 07:10:26;;;;;;;;;;;;;;;-0.10;73.08;98471.94;5089820;28;19924;-55
2023/03/04 07:12:53;;;;;;;;;;;;;;;-0.26;73.88;98467.25;5091602;28;19938;-55
2023/03/04 07:15:21;;;;;;;;;;;;;;;-0.12;73.31;98471.31;5078992;28;19924;-55
2023/03/04 07:17:49;;;;;;;;;;;;;;;-0.07;72.93;98474.13;5084812;28;19924;-55
2023/03/04 07:20:18;;;;;;;;;;;;;;;-0.11;73.21;98467.59;5088307;28;19928;-54
2023/03/04 07:22:46;;;;;;;;;;;;;;;0.02;72.80;98471.13;5090930;28;19928;-61
2023/03/04 07:25:14;;;;;;;;;;;;;;;0.12;72.60;98468.72;5085593;28;19931;-56
2023/03/04 07:27:42;;;;;;;;;;;;;;;0.14;72.30;98472.78;5093078;28;20300;-60
2023/03/04 07:30:10;;;;;;;;;;;;;;;0.03;72.43;98475.44;5089219;28;19931;-54
2023/03/04 07:32:38;;;;;;;;;;;;;;;0.16;72.16;98481.41;5095353;28;19932;-54
2023/03/04 07:35:07;;;;;;;;;;;;;;;0.21;72.13;98478.00;5095273;28;19939;-58
2023/03/04 07:37:36;;;;;;;;;;;;;;;0.30;71.57;98475.81;5092234;28;19990;-60
2023/03/04 07:40:06;;;;;;;;;;;;;;;0.26;71.45;98480.81;5090794;28;19967;-55
2023/03/04 07:42:34;;;;;;;;;;;;;;;0.32;71.52;98479.91;5092614;28;19938;-64
2023/03/04 07:45:10;;;;;;;;;;;;;;;0.43;70.73;98473.75;5089619;28;20968;-57
2023/03/04 07:47:38;;;;;;;;;;;;;;;0.49;70.72;98480.03;5090335;28;19936;-60
2023/03/04 07:50:06;;;;;;;;;;;;;;;0.47;70.50;98484.78;5091619;28;19931;-56
2023/03/04 07:52:37;;;;;;;;;;;;;;;0.49;70.78;98478.16;5088341;28;20274;-53
2023/03/04 07:55:05;;;;;;;;;;;;;;;0.36;70.94;98486.41;5090872;28;19951;-58
2023/03/04 07:57:32;;;;;;;;;;;;;;;0.51;70.25;98486.75;5085299;28;19968;-58
2023/03/04 08:00:00;;;;;;;;;;;;;;;0.64;70.00;98476.88;5085933;28;19935;-56
2023/03/04 08:02:38;;;;;;;;;;;;;;;0.73;69.19;98475.47;5085871;28;19928;-55
2023/03/04 08:05:06;;;;;;;;;;;;;;;0.70;69.83;98478.63;5084880;28;19928;-53
2023/03/04 08:07:34;;;;;;;;;;;;;;;0.71;69.32;98475.72;5091545;28;19924;-55
2023/03/04 08:10:04;;;;;;;;;;;;;;;0.69;69.30;98482.34;5089465;28;19930;-53
2023/03/04 08:12:31;;;;;;;;;;;;;;;0.68;69.32;98481.53;5083070;28;19932;-58
2023/03/04 08:14:59;;;;;;;;;;;;;;;0.70;69.29;98481.31;5089741;28;19924;-53
2023/03/04 08:17:29;;;;;;;;;;;;;;;0.77;68.77;98476.66;5089119;28;19969;-56
2023/03/04 08:19:57;;;;;;;;;;;;;;;0.77;68.72;98473.97;5083942;28;20282;-56
2023/03/04 08:22:24;;;;;;;;;;;;;;;0.79;68.43;98474.53;5086685;28;20039;-55
2023/03/04 08:24:53;;;;;;;;;;;;;;;0.85;67.83;98475.47;5086847;28;19978;-54
2023/03/04 08:27:22;;;;;;;;;;;;;;;0.93;67.84;98470.56;5084115;28;19935;-54
2023/03/04 08:29:49;;;;;;;;;;;;;;;0.89;67.43;98472.09;5088004;28;20087;-54
2023/03/04 08:32:17;;;;;;;;;;;;;;;0.86;67.75;98477.91;5083737;28;19969;-54
2023/03/04 08:34:45;;;;;;;;;;;;;;;0.89;67.64;98473.94;5072939;28;19924;-55
2023/03/04 08:37:13;;;;;;;;;;;;;;;0.98;67.38;98470.69;5080323;28;19978;-57
2023/03/04 08:39:41;;;;;;;;;;;;;;;1.01;66.84;98472.91;5081981;28;19934;-55
2023/03/04 08:42:09;;;;;;;;;;;;;;;0.99;66.88;98474.97;5084457;28;19995;-56
2023/03/04 08:44:38;;;;;;;;;;;;;;;1.12;66.12;98462.38;5084612;28;19935;-56
2023/03/04 08:47:08;;;;;;;;;;;;;;;1.02;66.32;98469.16;5079196;28;20382;-55
2023/03/04 08:49:36;;;;;;;;;;;;;;;1.09;66.18;98465.53;5081469;28;19924;-57
2023/03/04 08:52:04;;;;;;;;;;;;;;;1.13;66.28;98464.03;5085664;28;19935;-55
2023/03/04 08:54:32;;;;;;;;;;;;;;;1.21;66.03;98466.31;5079445;28;19928;-56
2023/03/04 08:57:00;;;;;;;;;;;;;;;1.21;65.51;98469.00;5091704;28;19928;-54
2023/03/04 08:59:27;;;;;;;;;;;;;;;1.18;65.71;98466.81;5086155;28;19924;-55
2023/03/04 09:01:57;;;;;;;;;;;;;;;1.31;65.62;98471.88;5076866;28;19924;-57
2023/03/04 09:04:24;;;;;;;;;;;;;;;1.40;65.06;98475.81;5081865;28;19928;-55
2023/03/04 09:06:52;;;;;;;;;;;;;;;1.42;64.65;98478.25;5087823;28;19924;-54
2023/03/04 09:09:21;;;;;;;;;;;;;;;1.41;65.32;98472.09;5086831;28;19978;-56
2023/03/04 09:11:49;;;;;;;;;;;;;;;1.55;65.09;98470.75;5077781;28;19928;-56
2023/03/04 09:14:16;;;;;;;;;;;;;;;1.44;65.08;98471.63;5084807;28;20385;-55
2023/03/04 09:16:45;;;;;;;;;;;;;;;1.38;64.86;98477.91;5090146;28;19943;-59
2023/03/04 09:19:14;;;;;;;;;;;;;;;1.39;64.77;98482.22;5102046;28;19924;-56
2023/03/04 09:21:41;;;;;;;;;;;;;;;1.50;65.08;98486.72;5104187;28;19931;-55
2023/03/04 09:24:09;;;;;;;;;;;;;;;1.52;64.67;98481.13;5103743;28;19931;-55
2023/03/04 09:26:37;;;;;;;;;;;;;;;1.56;64.63;98479.59;5098269;28;19923;-56
2023/03/04 09:29:05;;;;;;;;;;;;;;;1.57;64.96;98478.53;5097757;28;19935;-56
2023/03/04 09:31:33;;;;;;;;;;;;;;;1.63;64.36;98484.81;5087059;28;19968;-55
2023/03/04 09:34:01;;;;;;;;;;;;;;;1.60;64.96;98487.94;5090570;28;20394;-56
2023/03/04 09:36:30;;;;;;;;;;;;;;;1.73;63.92;98490.34;5087081;28;20020;-55
2023/03/04 09:38:59;;;;;;;;;;;;;;;1.68;64.00;98482.22;5084473;28;19923;-56
2023/03/04 09:41:27;;;;;;;;;;;;;;;1.81;63.32;98481.91;5082352;28;19928;-55
2023/03/04 09:43:55;;;;;;;;;;;;;;;1.77;63.24;98478.13;5079010;28;20007;-55
2023/03/04 09:46:24;;;;;;;;;;;;;;;1.69;63.53;98481.97;5079459;28;19947;-54
2023/03/04 09:48:52;;;;;;;;;;;;;;;1.47;63.67;98486.38;5080859;28;19935;-55
2023/03/04 09:51:22;;;;;;;;;;;;;;;1.65;63.88;98486.22;5078814;28;19924;-57
2023/03/04 09:53:58;;;;;;;;;;;;;;;1.89;63.41;98480.72;5096855;28;20373;-55
2023/03/04 09:56:26;;;;;;;;;;;;;;;1.93;63.01;98482.69;5088844;28;19924;-55
2023/03/04 09:58:57;;;;;;;;;;;;;;;1.80;63.37;98488.34;5085877;28;19924;-60
2023/03/04 10:01:26;;;;;;;;;;;;;;;1.93;62.79;98479.19;5088715;28;20403;-56
2023/03/04 10:03:55;;;;;;;;;;;;;;;1.93;63.07;98482.69;5100615;28;19924;-58
2023/03/04 10:06:23;;;;;;;;;;;;;;;1.98;62.49;98481.97;5096259;28;20024;-56
2023/03/04 10:08:52;;;;;;;;;;;;;;;2.05;62.60;98478.06;5106001;28;20271;-55
2023/03/04 10:11:25;;;;;;;;;;;;;;;2.18;62.72;98478.81;5103141;28;19925;-56
2023/03/04 10:13:55;;;;;;;;;;;;;;;2.18;61.91;98471.56;5085881;28;20280;-56
2023/03/04 10:16:24;;;;;;;;;;;;;;;2.15;62.20;98476.63;5088425;28;19931;-55
2023/03/04 10:18:53;;;;;;;;;;;;;;;2.21;62.15;98468.41;5078550;28;19925;-55
2023/03/04 10:21:22;;;;;;;;;;;;;;;2.36;61.91;98479.41;5081530;28;19935;-57
2023/03/04 10:23:52;;;;;;;;;;;;;;;2.35;61.94;98471.59;5084819;28;20011;-55
2023/03/04 10:26:20;;;;;;;;;;;;;;;2.40;61.42;98469.00;5085490;28;19931;-55
2023/03/04 10:28:50;;;;;;;;;;;;;;;2.39;61.48;98467.34;5077270;28;19938;-58
2023/03/04 10:31:22;;;;;;;;;;;;;;;2.43;61.72;98463.13;5100367;28;19928;-55
2023/03/04 10:33:50;;;;;;;;;;;;;;;2.43;61.45;98465.81;5080386;28;19931;-55
2023/03/04 10:36:23;;;;;;;;;;;;;;;2.51;60.96;98465.41;5096497;28;19935;-60
2023/03/04 10:38:53;;;;;;;;;;;;;;;2.45;61.41;98461.03;5088661;28;20003;-56
2023/03/04 10:41:23;;;;;;;;;;;;;;;2.42;61.63;98466.88;5087290;28;20019;-55
2023/03/04 10:44:00;;;;;;;;;;;;;;;2.57;61.64;98459.06;5081024;28;20250;-55
2023/03/04 10:46:28;;;;;;;;;;;;;;;2.70;60.46;98457.09;5077518;28;20396;-55
2023/03/04 10:48:56;;;;;;;;;;;;;;;2.79;60.34;98463.66;5087097;28;19925;-55
2023/03/04 10:51:24;;;;;;;;;;;;;;;2.68;59.86;98457.34;5070418;28;19924;-54
2023/03/04 10:53:56;;;;;;;;;;;;;;;2.60;60.27;98453.19;5089808;28;20353;-56
2023/03/04 10:56:31;;;;;;;;;;;;;;;2.76;60.26;98451.53;5075041;28;19924;-54
2023/03/04 10:59:14;;;;;;;;;;;;;;;2.75;59.85;98455.28;5089565;28;19931;-58
2023/03/04 11:01:43;;;;;;;;;;;;;;;2.73;59.47;98457.41;5068038;28;19936;-55
2023/03/04 11:04:15;;;;;;;;;;;;;;;2.70;59.91;98454.41;5088554;28;19924;-56
2023/03/04 11:06:43;;;;;;;;;;;;;;;2.74;59.47;98452.84;5080577;28;19931;-60
2023/03/04 11:09:20;;;;;;;;;;;;;;;2.62;59.76;98455.66;5088380;28;19931;-60
2023/03/04 11:11:49;;;;;;;;;;;;;;;2.63;59.84;98459.94;5086778;28;20385;-54
2023/03/04 11:14:19;;;;;;;;;;;;;;;2.69;59.47;98453.59;5083194;28;19936;-59
2023/03/04 11:16:54;;;;;;;;;;;;;;;2.72;59.36;98454.97;5079195;28;19928;-56
2023/03/04 11:19:21;;;;;;;;;;;;;;;2.70;59.56;98452.53;5088526;28;19936;-55
2023/03/04 11:21:49;;;;;;;;;;;;;;;2.81;58.97;98448.91;5083686;28;19935;-55
2023/03/04 11:24:20;;;;;;;;;;;;;;;2.80;59.29;98449.19;5090298;28;19951;-56
2023/03/04 11:26:57;;;;;;;;;;;;;;;2.81;58.77;98448.13;5082631;28;19977;-56
2023/03/04 11:29:25;;;;;;;;;;;;;;;2.79;59.19;98444.88;5078392;28;19935;-55
2023/03/04 11:31:55;;;;;;;;;;;;;;;2.73;59.58;98451.25;5078742;28;19967;-54
2023/03/04 11:34:28;;;;;;;;;;;;;;;2.89;59.10;98439.66;5083596;28;19925;-56
2023/03/04 11:36:57;;;;;;;;;;;;;;;2.83;58.63;98438.78;5088433;28;19932;-62
2023/03/04 11:39:27;;;;;;;;;;;;;;;2.86;58.94;98440.13;5083454;28;19928;-66
2023/03/04 11:41:57;;;;;;;;;;;;;;;2.88;58.91;98433.47;5081774;28;19928;-56
2023/03/04 11:44:25;;;;;;;;;;;;;;;2.87;58.69;98439.88;5087817;28;20380;-55
2023/03/04 11:47:11;;;;;;;;;;;;;;;2.85;58.86;98439.31;5083590;28;19932;-55
2023/03/04 11:49:46;;;;;;;;;;;;;;;2.78;58.39;98422.59;5077842;28;19967;-55
2023/03/04 11:52:16;;;;;;;;;;;;;;;2.68;58.91;98424.34;5097320;28;20090;-54
2023/03/04 11:54:45;;;;;;;;;;;;;;;2.73;58.93;98422.53;5079632;28;19928;-55
2023/03/04 11:57:16;;;;;;;;;;;;;;;2.71;59.06;98421.13;5083599;28;20019;-56
2023/03/04 11:59:49;;;;;;;;;;;;;;;2.71;58.65;98418.47;5076814;28;19932;-55
2023/03/04 12:02:17;;;;;;;;;;;;;;;2.79;58.27;98412.69;5076938;28;19924;-55
2023/03/04 12:05:10;;;;;;;;;;;;;;;2.73;58.57;98402.94;5077048;28;19942;-56
2023/03/04 12:07:52;;;;;;;;;;;;;;;2.61;59.14;98397.69;5083825;28;19924;-55
2023/03/04 12:10:21;;;;;;;;;;;;;;;2.69;59.39;98393.75;5084568;28;20293;-54
2023/03/04 12:12:56;;;;;;;;;;;;;;;2.82;58.76;98401.44;5083825;28;19934;-56
2023/03/04 12:15:25;;;;;;;;;;;;;;;2.88;58.93;98392.41;5075579;28;19928;-55
2023/03/04 12:18:11;;;;;;;;;;;;;;;2.86;58.87;98386.47;5072745;28;19928;-56
2023/03/04 12:20:43;;;;;;;;;;;;;;;2.87;58.79;98388.06;5078633;28;19925;-55
2023/03/04 12:23:20;;;;;;;;;;;;;;;2.83;58.63;98386.97;5077951;28;19925;-55
2023/03/04 12:25:50;;;;;;;;;;;;;;;2.74;58.96;98375.84;5078840;28;19936;-55
2023/03/04 12:28:22;;;;;;;;;;;;;;;2.78;59.11;98381.53;5085439;28;20381;-56
2023/03/04 12:30:53;;;;;;;;;;;;;;;2.87;58.61;98377.34;5067914;28;20110;-58
2023/03/04 12:33:25;;;;;;;;;;;;;;;2.88;58.50;98382.47;5063888;28;19932;-56
2023/03/04 12:35:56;;;;;;;;;;;;;;;2.83;58.33;98376.25;5078756;28;19929;-65
2023/03/04 12:38:30;;;;;;;;;;;;;;;2.90;58.04;98379.53;5064092;28;19924;-57
2023/03/04 12:41:00;;;;;;;;;;;;;;;2.86;57.94;98376.53;5063950;28;19932;-56
2023/03/04 12:43:40;;;;;;;;;;;;;;;2.98;58.08;98378.28;5067219;28;19928;-56
2023/03/04 12:46:11;;;;;;;;;;;;;;;3.06;57.54;98378.66;5072456;28;19924;-55
2023/03/04 12:48:41;;;;;;;;;;;;;;;3.02;57.67;98374.84;5079138;28;19924;-55
2023/03/04 12:51:17;;;;;;;;;;;;;;;3.04;58.23;98375.44;5081868;28;20341;-57
2023/03/04 12:53:48;;;;;;;;;;;;;;;3.08;57.78;98375.72;5073353;28;20001;-55
2023/03/04 12:56:19;;;;;;;;;;;;;;;3.05;57.80;98373.56;5080517;28;19962;-54
2023/03/04 12:58:47;;;;;;;;;;;;;;;3.08;57.90;98376.53;5083288;28;19974;-55
2023/03/04 13:01:16;;;;;;;;;;;;;;;3.04;58.08;98372.75;5078944;28;19955;-55
2023/03/04 13:03:46;;;;;;;;;;;;;;;3.09;57.74;98366.59;5087007;28;19943;-56